Vorden, California
Current Conditions -  °F | °C
As of 8:58 PM on Friday 24 Oct 2014 (Local Time) from KSUU Reporting Station
Clear Clear  
Wind Chill: 62°   Ceiling: Unl
Heat Index: 62°   Visibility: 10mi
Dew Point: 60°   Wind: 12mph
Humidity: 93%   Direction: 260°W
Pressure: 29.87"   Gusts: NA
Location:  38.2298°N, 121.579°W
Report Text: KSUU 250358Z AUTO 26010KT 10SM CLR 17/16 A2987 RMK AO2 SLP122 T01680157 $
Loading
Personal Weather Stations






























Interactive Weather Map
Tropical Storm Tracking
New forecast layout! Learn more

10-Day Weather Forecast

Advertisements
Track Severe Weather on mobile